Station: Ballan (Cfa)  

  Atmospheric Gas Attenuation - ITU Rec 676-11   ----------------- dB/100km -----------------
Date Time Temp RH % AH g/m3 Dew Point Wind Direction Speed kph Gust kph Barometer mB Rainfall Since 9am 24GHz 47GHz 76GHz 122GHz 134GHz 241GHz
08/05 12:20 12.2 79 8.53 8.7 24 26 1013.1 0.2 19.5 26.2 40.3 105.8 99.5 342.1
08/05 12:10 12.5 79 8.69 9 22 26 1013.1 0.2 19.8 26.4 40.8 107.2 101.3 348.4
08/05 12:00 12.4 77 8.41 8.6 28 33 1013.1 0.2 19.3 26.0 39.7 104.2 97.6 335.6
08/05 11:50 12.2 81 8.74 9.1 24 28 1013.1 0.2 20.0 26.6 41.2 108.1 102.3 352.1
08/05 11:40 11.8 83 8.74 9.1 26 33 1013.1 0.2 20.0 26.7 41.4 108.7 102.9 353.9
08/05 11:30 11.7 86 9 9.4 24 28 1013.1 0.2 20.6 27.2 42.5 111.7 106.6 366.8
08/05 11:20 11.3 89 9.08 9.5 24 26 1013.1 0.2 20.7 27.4 43.1 113.2 108.2 372.6
08/05 11:10 11.1 87 8.76 9.1 26 28 1013.1 0.2 20.1 27.0 41.8 109.9 104.1 358.0
08/05 11:00 11.1 87 8.76 9.1 24 28 1013.1 0.2 20.1 27.0 41.8 109.9 104.1 358.0
08/05 10:50 11.3 90 9.18 9.7 20 26 1013.1 0.2 21.0 27.6 43.5 114.3 109.6 377.5
08/05 10:40 11.1 89 8.97 9.4 26 33 1013.1 0.2 20.5 27.3 42.7 112.2 107.0 368.2
08/05 10:30 11 92 9.21 9.8 24 30 1013.1 0.2 21.0 27.8 43.8 115.1 110.5 380.4
08/05 10:20 10.8 92 9.1 9.6 24 32 1013.1 0.2 20.8 27.6 43.4 114.2 109.2 376.0
08/05 10:10 10.6 94 9.18 9.7 24 30 1013.1 0.2 21.0 27.8 43.9 115.4 110.6 380.9
08/05 09:50 10.3 93 8.91 9.3 24 30 1013.1 0.2 20.4 27.5 42.9 112.7 107.3 369.1
08/05 09:40 10.1 94 8.89 9.2 24 32 1013.1 0.2 20.4 27.5 42.9 112.8 107.3 369.1
08/05 09:30 10.1 95 8.99 9.3 20 26 1013.1 0.2 20.6 27.7 43.4 113.9 108.7 374.0
08/05 09:20 9.9 96 8.97 9.3 19 22 1013.1 0.2 20.6 27.7 43.4 114.0 108.7 374.0
08/05 09:10 9.8 96 8.91 9.2 20 26 1013.1 0 20.5 27.6 43.2 113.5 108.0 371.5
08/05 09:00 9.7 96 8.85 9.1 20 24 1013.1 2 20.3 27.5 43.0 112.9 107.3 369.0
08/05 08:50 9.7 97 8.94 9.2 19 22 1013.1 2 20.5 27.7 43.4 113.9 108.6 373.5
08/05 08:40 9.7 96 8.85 9.1 24 30 1013.1 2 20.3 27.5 43.0 112.9 107.3 369.0
08/05 08:30 9.7 95 8.76 9 22 26 1013.1 2 20.1 27.4 42.6 111.9 106.0 364.6
08/05 08:20 9.7 96 8.85 9.1 20 30 1013.1 2 20.3 27.5 43.0 112.9 107.3 369.0
08/05 08:10 9.6 96 8.8 9 24 32 1013.1 2 20.2 27.5 42.8 112.5 106.7 367.0
08/05 08:00 9.6 96 8.8 9 28 35 1013.1 2 20.2 27.5 42.8 112.5 106.7 367.0
08/05 07:50 9.6 97 8.89 9.1 22 28 1013.1 1.8 20.4 27.6 43.2 113.5 108.0 371.5
08/05 07:40 9.5 97 8.83 9 24 28 1013.1 1.8 20.3 27.6 43.0 113.0 107.3 369.0
08/05 07:30 9.5 97 8.83 9 19 22 1013.1 1.8 20.3 27.6 43.0 113.0 107.3 369.0
08/05 07:20 9.5 97 8.83 9 22 28 1013.1 1.8 20.3 27.6 43.0 113.0 107.3 369.0
08/05 07:10 9.5 97 8.83 9 20 26 1013.1 1.8 20.3 27.6 43.0 113.0 107.3 369.0
08/05 07:00 9.5 97 8.83 9 19 22 1013.1 1.6 20.3 27.6 43.0 113.0 107.3 369.0
08/05 06:50 9.5 97 8.83 9 17 20 1013.1 1.6 20.3 27.6 43.0 113.0 107.3 369.0
08/05 06:40 9.5 97 8.83 9 24 28 1013.1 1.6 20.3 27.6 43.0 113.0 107.3 369.0
08/05 06:30 9.5 97 8.83 9 22 26 1013.1 1.4 20.3 27.6 43.0 113.0 107.3 369.0
08/05 06:20 9.5 97 8.83 9 22 33 1013.1 1.4 20.3 27.6 43.0 113.0 107.3 369.0
08/05 06:10 9.5 96 8.74 8.9 24 30 1013.1 1.4 20.1 27.4 42.6 111.9 106.0 364.5
08/05 06:00 9.5 96 8.74 8.9 26 32 1013.1 1.4 20.1 27.4 42.6 111.9 106.0 364.5
08/05 05:50 9.5 96 8.74 8.9 22 28 1013.1 1.4 20.1 27.4 42.6 111.9 106.0 364.5
08/05 05:40 9.5 96 8.74 8.9 20 30 1013.1 1.4 20.1 27.4 42.6 111.9 106.0 364.5
08/05 05:30 9.5 96 8.74 8.9 24 30 1013.1 1.4 20.1 27.4 42.6 111.9 106.0 364.5
08/05 05:20 9.5 96 8.74 8.9 28 33 1013.1 1.4 20.1 27.4 42.6 111.9 106.0 364.5
08/05 05:10 9.5 96 8.74 8.9 26 32 1013.1 1.2 20.1 27.4 42.6 111.9 106.0 364.5
08/05 05:00 9.4 97 8.78 8.9 24 30 1013.1 1.2 20.2 27.5 42.8 112.5 106.7 367.0
08/05 04:50 9.5 96 8.74 8.9 26 30 1013.1 1.2 20.1 27.4 42.6 111.9 106.0 364.5
08/05 04:40 9.4 96 8.69 8.8 26 32 1013.1 1 20.0 27.4 42.5 111.5 105.4 362.5
08/05 04:30 9.4 96 8.69 8.8 30 33 1013.1 1 20.0 27.4 42.5 111.5 105.4 362.5
08/05 04:20 9.4 96 8.69 8.8 24 28 1013.1 1 20.0 27.4 42.5 111.5 105.4 362.5
08/05 04:10 9.4 96 8.69 8.8 26 30 1013.1 1 20.0 27.4 42.5 111.5 105.4 362.5
08/05 04:00 9.5 95 8.65 8.7 26 39 1013.1 1 19.9 27.3 42.2 110.9 104.7 360.1
08/05 03:50 9.6 93 8.52 8.6 28 33 1013.1 1 19.6 27.0 41.6 109.3 102.8 353.3
08/05 03:40 9.5 95 8.65 8.7 30 35 1013.1 1 19.9 27.3 42.2 110.9 104.7 360.1
08/05 03:30 9.4 96 8.69 8.8 28 33 1013.1 1 20.0 27.4 42.5 111.5 105.4 362.5
08/05 03:20 9.4 95 8.59 8.7 26 33 1013.1 0.8 19.8 27.2 42.0 110.4 104.0 357.6
08/05 03:10 9.4 95 8.59 8.7 28 33 1013.1 0.8 19.8 27.2 42.0 110.4 104.0 357.6
08/05 03:00 9.3 96 8.63 8.7 28 32 1013.1 0.8 19.9 27.3 42.3 111.0 104.7 360.0
08/05 02:50 9.3 95 8.54 8.6 28 32 1013.1 0.8 19.7 27.1 41.9 109.9 103.5 355.6
08/05 02:40 9.2 95 8.49 8.5 24 33 1013.1 0.8 19.6 27.1 41.7 109.5 102.9 353.6
08/05 02:30 9.2 95 8.49 8.5 26 30 1013.1 0.8 19.6 27.1 41.7 109.5 102.9 353.6
08/05 02:20 9.1 95 8.43 8.4 26 30 1013.1 0.8 19.5 27.0 41.5 109.0 102.2 351.1
08/05 02:10 9 96 8.47 8.4 24 30 1013.1 0.8 19.5 27.1 41.7 109.6 102.9 353.6
08/05 02:00 9 96 8.47 8.4 26 32 1013.1 0.8 19.5 27.1 41.7 109.6 102.9 353.6
08/05 01:50 8.9 96 8.41 8.3 26 30 1013.1 0.8 19.4 27.0 41.5 109.0 102.2 351.1
08/05 01:40 8.9 95 8.32 8.2 26 30 1013.1 0.8 19.2 26.9 41.1 108.0 100.9 346.6
08/05 01:30 8.8 96 8.36 8.2 26 28 1013.1 0.8 19.3 27.0 41.4 108.6 101.6 349.1
08/05 01:20 8.8 95 8.27 8.1 22 26 1013.1 0.6 19.1 26.8 41.0 107.6 100.4 344.6
08/05 01:10 8.7 96 8.31 8.1 20 26 1013.1 0.6 19.2 26.9 41.2 108.2 101.0 347.1
08/05 01:00 8.6 96 8.25 8 22 28 1013.1 0.6 19.1 26.9 41.0 107.6 100.3 344.6
08/05 00:50 8.6 96 8.25 8 26 32 1013.1 0.6 19.1 26.9 41.0 107.6 100.3 344.6
08/05 00:40 8.6 96 8.25 8 28 35 1013.1 0.6 19.1 26.9 41.0 107.6 100.3 344.6
08/05 00:30 8.5 97 8.28 8 26 32 1013.1 0.6 19.2 26.9 41.2 108.1 100.9 346.5
08/05 00:20 8.5 96 8.2 7.9 26 32 1013.1 0.6 19.0 26.8 40.8 107.2 99.8 342.5
08/05 00:10 8.5 95 8.11 7.8 26 30 1013.1 0.6 18.8 26.6 40.5 106.2 98.5 338.1
08/05 00:00 8.4 96 8.15 7.8 26 33 1013.1 0.6 18.9 26.7 40.7 106.8 99.2 340.5
07/05 23:50 8.3 96 8.09 7.7 26 30 1013.1 0.6 18.8 26.7 40.5 106.2 98.5 338.0
07/05 23:40 8.2 96 8.04 7.6 24 26 1013.1 0.6 18.7 26.6 40.3 105.8 97.9 336.0
07/05 23:30 8.2 95 7.96 7.5 24 30 1013.1 0.6 18.5 26.5 40.0 104.9 96.8 332.1
07/05 23:20 8.1 96 7.99 7.5 24 28 1013.1 0.6 18.6 26.6 40.2 105.4 97.3 334.0
07/05 23:10 8 96 7.94 7.4 24 28 1013.1 0.6 18.4 26.5 40.0 104.9 96.8 332.0
07/05 23:00 8 95 7.86 7.3 26 28 1013.1 0.6 18.3 26.4 39.7 104.0 95.7 328.1
07/05 22:50 7.9 95 7.81 7.2 24 30 1013.1 0.6 18.2 26.3 39.5 103.6 95.1 326.1
07/05 22:40 7.9 95 7.81 7.1 24 28 1013.1 0.6 18.2 26.3 39.5 103.6 95.1 326.1
07/05 22:30 7.8 95 7.76 7 28 32 1013.1 0.6 18.1 26.3 39.3 103.2 94.5 324.1
07/05 22:20 7.8 94 7.67 6.9 26 30 1013.1 0.6 17.9 26.1 39.0 102.2 93.3 319.7
07/05 22:10 7.8 93 7.59 6.8 24 30 1013.1 0.6 17.7 26.0 38.6 101.3 92.2 315.8
07/05 22:00 7.8 93 7.59 6.7 30 37 1013.1 0.6 17.7 26.0 38.6 101.3 92.2 315.8
07/05 21:50 7.7 93 7.54 6.7 30 35 1013.1 0.6 17.6 25.9 38.5 100.8 91.6 313.8
07/05 21:40 7.6 93 7.5 6.6 28 33 1013.1 0.6 17.5 25.9 38.3 100.5 91.2 312.3
07/05 21:30 7.4 94 7.48 6.5 26 33 1013.1 0.6 17.5 25.9 38.4 100.5 91.1 312.1
07/05 21:20 7.2 95 7.46 6.4 28 33 1013.1 0.6 17.4 25.9 38.4 100.6 91.1 311.9
07/05 21:10 7.2 93 7.3 6.2 26 30 1013.1 0.6 17.1 25.7 37.7 98.8 88.9 304.2
07/05 21:00 7.1 94 7.33 6.2 24 28 1013.1 0.6 17.2 25.7 37.9 99.2 89.4 306.0
07/05 20:50 7.1 93 7.26 6.1 26 32 1013.1 0.6 17.0 25.6 37.6 98.5 88.4 302.7
07/05 20:40 7.1 93 7.26 6 26 32 1013.1 0.6 17.0 25.6 37.6 98.5 88.4 302.7
07/05 20:30 7.3 91 7.19 5.9 30 37 1013.1 0.6 16.9 25.4 37.2 97.4 87.2 298.5
07/05 20:20 7.4 89 7.08 5.7 33 41 1013.1 0.6 16.6 25.2 36.7 96.1 85.6 292.9
07/05 20:10 7.3 89 7.04 5.6 32 39 1013.1 0.6 16.5 25.2 36.6 95.8 85.2 291.4
07/05 20:00 7.3 89 7.04 5.6 28 33 1013.1 0.6 16.5 25.2 36.6 95.8 85.2 291.4
07/05 19:50 7.3 88 6.96 5.5 26 30 1013.1 0.6 16.4 25.1 36.2 94.9 84.1 287.5
07/05 19:40 7.4 87 6.92 5.4 28 39 1013.1 0.6 16.3 25.0 36.0 94.3 83.5 285.3

Last Refresh: 08-May-2026 12:08:49

Bureau of Meteorology